sensor_id;sensor_type;location;lat;lon;timestamp;P1;durP1;ratioP1;P2;durP2;ratioP2
46282;SDS011;32017;43.700;11.820;2023-02-22T00:00:06;28.52;;;25.48;;
46282;SDS011;32017;43.700;11.820;2023-02-22T00:02:47;35.95;;;27.33;;
46282;SDS011;32017;43.700;11.820;2023-02-22T00:05:10;30.48;;;25.73;;
46282;SDS011;32017;43.700;11.820;2023-02-22T00:07:34;32.88;;;27.67;;
46282;SDS011;32017;43.700;11.820;2023-02-22T00:09:55;37.08;;;29.38;;
46282;SDS011;32017;43.700;11.820;2023-02-22T00:12:15;37.70;;;30.42;;
46282;SDS011;32017;43.700;11.820;2023-02-22T00:14:35;32.63;;;28.98;;
46282;SDS011;32017;43.700;11.820;2023-02-22T00:16:56;29.45;;;26.13;;
46282;SDS011;32017;43.700;11.820;2023-02-22T00:19:17;42.97;;;31.23;;
46282;SDS011;32017;43.700;11.820;2023-02-22T00:21:38;39.85;;;32.95;;
46282;SDS011;32017;43.700;11.820;2023-02-22T00:23:58;34.13;;;29.02;;
46282;SDS011;32017;43.700;11.820;2023-02-22T00:26:19;34.05;;;30.45;;
46282;SDS011;32017;43.700;11.820;2023-02-22T00:28:41;30.30;;;27.10;;
46282;SDS011;32017;43.700;11.820;2023-02-22T00:31:03;30.33;;;26.70;;
46282;SDS011;32017;43.700;11.820;2023-02-22T00:33:24;37.45;;;29.70;;
46282;SDS011;32017;43.700;11.820;2023-02-22T00:35:46;33.80;;;28.10;;
46282;SDS011;32017;43.700;11.820;2023-02-22T00:38:06;30.75;;;27.60;;
46282;SDS011;32017;43.700;11.820;2023-02-22T00:40:27;29.52;;;26.35;;
46282;SDS011;32017;43.700;11.820;2023-02-22T00:45:10;35.97;;;27.80;;
46282;SDS011;32017;43.700;11.820;2023-02-22T00:47:30;30.10;;;26.67;;
46282;SDS011;32017;43.700;11.820;2023-02-22T00:49:50;30.83;;;27.08;;
46282;SDS011;32017;43.700;11.820;2023-02-22T00:52:11;29.50;;;26.45;;
46282;SDS011;32017;43.700;11.820;2023-02-22T00:54:31;30.98;;;27.88;;
46282;SDS011;32017;43.700;11.820;2023-02-22T00:56:51;32.63;;;29.17;;
46282;SDS011;32017;43.700;11.820;2023-02-22T00:59:12;32.47;;;29.05;;
46282;SDS011;32017;43.700;11.820;2023-02-22T01:01:33;30.63;;;27.38;;
46282;SDS011;32017;43.700;11.820;2023-02-22T01:03:53;32.55;;;28.15;;
46282;SDS011;32017;43.700;11.820;2023-02-22T01:06:13;32.42;;;28.00;;
46282;SDS011;32017;43.700;11.820;2023-02-22T01:08:33;32.67;;;29.33;;
46282;SDS011;32017;43.700;11.820;2023-02-22T01:10:54;32.20;;;28.92;;
46282;SDS011;32017;43.700;11.820;2023-02-22T01:13:16;35.15;;;28.98;;
46282;SDS011;32017;43.700;11.820;2023-02-22T01:15:39;31.45;;;28.13;;
46282;SDS011;32017;43.700;11.820;2023-02-22T01:18:01;30.80;;;27.70;;
46282;SDS011;32017;43.700;11.820;2023-02-22T01:20:21;29.15;;;25.90;;
46282;SDS011;32017;43.700;11.820;2023-02-22T01:22:42;29.55;;;26.50;;
46282;SDS011;32017;43.700;11.820;2023-02-22T01:25:04;31.08;;;27.48;;
46282;SDS011;32017;43.700;11.820;2023-02-22T01:27:25;29.92;;;26.23;;
46282;SDS011;32017;43.700;11.820;2023-02-22T01:29:47;29.50;;;26.65;;
46282;SDS011;32017;43.700;11.820;2023-02-22T01:32:08;30.15;;;27.02;;
46282;SDS011;32017;43.700;11.820;2023-02-22T01:34:29;29.95;;;27.15;;
46282;SDS011;32017;43.700;11.820;2023-02-22T01:36:51;29.95;;;27.05;;
46282;SDS011;32017;43.700;11.820;2023-02-22T01:39:10;32.75;;;29.33;;
46282;SDS011;32017;43.700;11.820;2023-02-22T01:41:31;31.45;;;28.08;;
46282;SDS011;32017;43.700;11.820;2023-02-22T01:43:51;32.75;;;28.80;;
46282;SDS011;32017;43.700;11.820;2023-02-22T01:46:24;30.33;;;27.60;;
46282;SDS011;32017;43.700;11.820;2023-02-22T01:49:03;30.13;;;26.85;;
46282;SDS011;32017;43.700;11.820;2023-02-22T01:51:27;29.55;;;26.27;;
46282;SDS011;32017;43.700;11.820;2023-02-22T01:54:00;32.15;;;28.75;;
46282;SDS011;32017;43.700;11.820;2023-02-22T01:56:26;30.90;;;27.90;;
46282;SDS011;32017;43.700;11.820;2023-02-22T01:58:51;29.67;;;26.85;;
46282;SDS011;32017;43.700;11.820;2023-02-22T02:01:15;28.92;;;26.13;;
46282;SDS011;32017;43.700;11.820;2023-02-22T02:03:38;29.83;;;26.73;;
46282;SDS011;32017;43.700;11.820;2023-02-22T02:06:02;32.80;;;27.65;;
46282;SDS011;32017;43.700;11.820;2023-02-22T02:08:36;31.05;;;27.38;;
46282;SDS011;32017;43.700;11.820;2023-02-22T02:10:57;30.30;;;26.90;;
46282;SDS011;32017;43.700;11.820;2023-02-22T02:13:18;29.83;;;26.80;;
46282;SDS011;32017;43.700;11.820;2023-02-22T02:15:38;30.80;;;27.67;;
46282;SDS011;32017;43.700;11.820;2023-02-22T02:17:59;30.33;;;27.23;;
46282;SDS011;32017;43.700;11.820;2023-02-22T02:20:35;29.60;;;26.77;;
46282;SDS011;32017;43.700;11.820;2023-02-22T02:28:40;29.20;;;26.17;;
46282;SDS011;32017;43.700;11.820;2023-02-22T02:33:32;27.75;;;25.23;;
46282;SDS011;32017;43.700;11.820;2023-02-22T02:38:57;27.80;;;25.13;;
46282;SDS011;32017;43.700;11.820;2023-02-22T02:41:42;31.00;;;26.88;;
46282;SDS011;32017;43.700;11.820;2023-02-22T02:46:48;30.75;;;27.13;;
46282;SDS011;32017;43.700;11.820;2023-02-22T02:49:29;30.55;;;27.27;;
46282;SDS011;32017;43.700;11.820;2023-02-22T02:52:02;29.13;;;26.02;;
46282;SDS011;32017;43.700;11.820;2023-02-22T02:54:25;28.98;;;26.20;;
46282;SDS011;32017;43.700;11.820;2023-02-22T02:56:45;29.48;;;25.25;;
46282;SDS011;32017;43.700;11.820;2023-02-22T02:59:26;29.67;;;25.67;;
46282;SDS011;32017;43.700;11.820;2023-02-22T03:05:19;27.80;;;25.10;;
46282;SDS011;32017;43.700;11.820;2023-02-22T03:09:53;30.48;;;27.33;;
46282;SDS011;32017;43.700;11.820;2023-02-22T03:15:29;32.27;;;27.50;;
46282;SDS011;32017;43.700;11.820;2023-02-22T03:18:43;31.40;;;26.60;;
46282;SDS011;32017;43.700;11.820;2023-02-22T03:24:29;31.98;;;23.75;;
46282;SDS011;32017;43.700;11.820;2023-02-22T03:27:06;27.48;;;24.55;;
46282;SDS011;32017;43.700;11.820;2023-02-22T03:29:32;29.08;;;23.77;;
46282;SDS011;32017;43.700;11.820;2023-02-22T03:31:57;27.50;;;22.60;;
46282;SDS011;32017;43.700;11.820;2023-02-22T03:36:46;26.13;;;23.40;;
46282;SDS011;32017;43.700;11.820;2023-02-22T03:39:10;25.65;;;23.15;;
46282;SDS011;32017;43.700;11.820;2023-02-22T03:41:38;25.27;;;22.73;;
46282;SDS011;32017;43.700;11.820;2023-02-22T03:44:01;25.27;;;22.92;;
46282;SDS011;32017;43.700;11.820;2023-02-22T03:46:26;30.13;;;26.75;;
46282;SDS011;32017;43.700;11.820;2023-02-22T03:51:37;32.03;;;28.90;;
46282;SDS011;32017;43.700;11.820;2023-02-22T03:53:57;30.98;;;27.00;;
46282;SDS011;32017;43.700;11.820;2023-02-22T03:56:19;31.13;;;27.92;;
46282;SDS011;32017;43.700;11.820;2023-02-22T03:58:44;31.17;;;26.10;;
46282;SDS011;32017;43.700;11.820;2023-02-22T04:01:08;28.48;;;25.58;;
46282;SDS011;32017;43.700;11.820;2023-02-22T04:03:28;31.38;;;27.45;;
46282;SDS011;32017;43.700;11.820;2023-02-22T04:05:49;26.70;;;24.08;;
46282;SDS011;32017;43.700;11.820;2023-02-22T04:08:09;27.45;;;24.65;;
46282;SDS011;32017;43.700;11.820;2023-02-22T04:10:29;33.83;;;29.15;;
46282;SDS011;32017;43.700;11.820;2023-02-22T04:12:48;32.25;;;29.05;;
46282;SDS011;32017;43.700;11.820;2023-02-22T04:15:10;30.70;;;27.85;;
46282;SDS011;32017;43.700;11.820;2023-02-22T04:17:32;38.33;;;31.95;;
46282;SDS011;32017;43.700;11.820;2023-02-22T04:19:52;31.40;;;28.27;;
46282;SDS011;32017;43.700;11.820;2023-02-22T04:22:17;31.90;;;28.63;;
46282;SDS011;32017;43.700;11.820;2023-02-22T04:24:37;32.53;;;29.20;;
46282;SDS011;32017;43.700;11.820;2023-02-22T04:26:58;38.38;;;31.38;;
46282;SDS011;32017;43.700;11.820;2023-02-22T04:29:17;30.70;;;27.42;;
46282;SDS011;32017;43.700;11.820;2023-02-22T04:31:38;29.83;;;26.80;;
46282;SDS011;32017;43.700;11.820;2023-02-22T04:33:59;27.95;;;25.38;;
46282;SDS011;32017;43.700;11.820;2023-02-22T04:36:19;28.15;;;25.45;;
46282;SDS011;32017;43.700;11.820;2023-02-22T04:38:39;27.65;;;25.05;;
46282;SDS011;32017;43.700;11.820;2023-02-22T04:41:01;32.65;;;29.45;;
46282;SDS011;32017;43.700;11.820;2023-02-22T04:43:21;31.98;;;28.77;;
46282;SDS011;32017;43.700;11.820;2023-02-22T04:45:41;30.48;;;27.40;;
46282;SDS011;32017;43.700;11.820;2023-02-22T04:48:01;29.67;;;26.70;;
46282;SDS011;32017;43.700;11.820;2023-02-22T04:50:21;29.70;;;26.50;;
46282;SDS011;32017;43.700;11.820;2023-02-22T04:52:42;32.75;;;28.27;;
46282;SDS011;32017;43.700;11.820;2023-02-22T04:55:03;28.30;;;25.63;;
46282;SDS011;32017;43.700;11.820;2023-02-22T04:57:23;28.58;;;25.75;;
46282;SDS011;32017;43.700;11.820;2023-02-22T04:59:43;29.73;;;26.85;;
46282;SDS011;32017;43.700;11.820;2023-02-22T05:02:04;31.90;;;28.52;;
46282;SDS011;32017;43.700;11.820;2023-02-22T05:04:24;31.90;;;28.23;;
46282;SDS011;32017;43.700;11.820;2023-02-22T05:06:43;31.83;;;28.67;;
46282;SDS011;32017;43.700;11.820;2023-02-22T05:09:04;32.60;;;29.17;;
46282;SDS011;32017;43.700;11.820;2023-02-22T05:11:23;36.50;;;32.20;;
46282;SDS011;32017;43.700;11.820;2023-02-22T05:13:43;34.70;;;31.17;;
46282;SDS011;32017;43.700;11.820;2023-02-22T05:16:03;32.17;;;29.00;;
46282;SDS011;32017;43.700;11.820;2023-02-22T05:18:23;35.10;;;27.33;;
46282;SDS011;32017;43.700;11.820;2023-02-22T05:20:43;30.92;;;27.98;;
46282;SDS011;32017;43.700;11.820;2023-02-22T05:23:03;32.30;;;28.80;;
46282;SDS011;32017;43.700;11.820;2023-02-22T05:25:23;32.22;;;28.88;;
46282;SDS011;32017;43.700;11.820;2023-02-22T05:27:47;32.40;;;29.02;;
46282;SDS011;32017;43.700;11.820;2023-02-22T05:30:29;34.47;;;29.15;;
46282;SDS011;32017;43.700;11.820;2023-02-22T05:32:54;31.95;;;28.77;;
46282;SDS011;32017;43.700;11.820;2023-02-22T05:35:15;31.17;;;27.92;;
46282;SDS011;32017;43.700;11.820;2023-02-22T05:37:35;31.23;;;28.20;;
46282;SDS011;32017;43.700;11.820;2023-02-22T05:39:56;30.75;;;27.75;;
46282;SDS011;32017;43.700;11.820;2023-02-22T05:42:15;29.77;;;26.80;;
46282;SDS011;32017;43.700;11.820;2023-02-22T05:44:37;28.83;;;25.70;;
46282;SDS011;32017;43.700;11.820;2023-02-22T05:46:57;28.58;;;25.83;;
46282;SDS011;32017;43.700;11.820;2023-02-22T05:49:17;28.25;;;24.27;;
46282;SDS011;32017;43.700;11.820;2023-02-22T05:51:37;27.23;;;24.65;;
46282;SDS011;32017;43.700;11.820;2023-02-22T05:53:57;27.52;;;24.85;;
46282;SDS011;32017;43.700;11.820;2023-02-22T05:56:25;31.05;;;27.83;;
46282;SDS011;32017;43.700;11.820;2023-02-22T05:58:46;41.08;;;34.85;;
46282;SDS011;32017;43.700;11.820;2023-02-22T06:01:05;38.72;;;34.15;;
46282;SDS011;32017;43.700;11.820;2023-02-22T06:03:25;45.53;;;36.13;;
46282;SDS011;32017;43.700;11.820;2023-02-22T06:05:46;38.63;;;34.33;;
46282;SDS011;32017;43.700;11.820;2023-02-22T06:08:06;33.20;;;29.77;;
46282;SDS011;32017;43.700;11.820;2023-02-22T06:10:26;34.90;;;30.20;;
46282;SDS011;32017;43.700;11.820;2023-02-22T06:12:46;35.95;;;30.05;;
46282;SDS011;32017;43.700;11.820;2023-02-22T06:15:07;32.97;;;28.88;;
46282;SDS011;32017;43.700;11.820;2023-02-22T06:17:27;34.45;;;30.83;;
46282;SDS011;32017;43.700;11.820;2023-02-22T06:19:48;40.78;;;35.30;;
46282;SDS011;32017;43.700;11.820;2023-02-22T06:22:18;37.28;;;32.00;;
46282;SDS011;32017;43.700;11.820;2023-02-22T06:24:38;37.08;;;33.08;;
46282;SDS011;32017;43.700;11.820;2023-02-22T06:26:59;33.05;;;29.75;;
46282;SDS011;32017;43.700;11.820;2023-02-22T06:29:21;32.58;;;29.13;;
46282;SDS011;32017;43.700;11.820;2023-02-22T06:31:42;32.97;;;28.50;;
46282;SDS011;32017;43.700;11.820;2023-02-22T06:34:02;31.00;;;27.70;;
46282;SDS011;32017;43.700;11.820;2023-02-22T06:36:22;35.53;;;29.45;;
46282;SDS011;32017;43.700;11.820;2023-02-22T06:38:42;39.83;;;31.67;;
46282;SDS011;32017;43.700;11.820;2023-02-22T06:41:02;35.85;;;30.15;;
46282;SDS011;32017;43.700;11.820;2023-02-22T06:43:22;34.28;;;29.02;;
46282;SDS011;32017;43.700;11.820;2023-02-22T06:45:43;34.85;;;31.27;;
46282;SDS011;32017;43.700;11.820;2023-02-22T06:48:03;37.65;;;33.45;;
46282;SDS011;32017;43.700;11.820;2023-02-22T06:50:24;38.47;;;32.38;;
46282;SDS011;32017;43.700;11.820;2023-02-22T06:52:47;34.53;;;31.00;;
46282;SDS011;32017;43.700;11.820;2023-02-22T06:55:07;41.15;;;33.20;;
46282;SDS011;32017;43.700;11.820;2023-02-22T06:57:26;51.15;;;37.95;;
46282;SDS011;32017;43.700;11.820;2023-02-22T06:59:47;42.90;;;33.50;;
46282;SDS011;32017;43.700;11.820;2023-02-22T07:02:08;38.92;;;34.75;;
46282;SDS011;32017;43.700;11.820;2023-02-22T07:04:31;48.33;;;34.35;;
46282;SDS011;32017;43.700;11.820;2023-02-22T07:06:50;40.17;;;34.33;;
46282;SDS011;32017;43.700;11.820;2023-02-22T07:09:10;38.00;;;33.47;;
46282;SDS011;32017;43.700;11.820;2023-02-22T07:11:31;41.05;;;33.92;;
46282;SDS011;32017;43.700;11.820;2023-02-22T07:13:51;39.58;;;35.00;;
46282;SDS011;32017;43.700;11.820;2023-02-22T07:16:13;41.72;;;35.15;;
46282;SDS011;32017;43.700;11.820;2023-02-22T07:18:33;46.72;;;38.47;;
46282;SDS011;32017;43.700;11.820;2023-02-22T07:20:53;45.75;;;37.22;;
46282;SDS011;32017;43.700;11.820;2023-02-22T07:23:13;42.30;;;37.67;;
46282;SDS011;32017;43.700;11.820;2023-02-22T07:25:34;41.38;;;35.75;;
46282;SDS011;32017;43.700;11.820;2023-02-22T07:27:54;42.33;;;34.83;;
46282;SDS011;32017;43.700;11.820;2023-02-22T07:32:39;36.83;;;32.42;;
46282;SDS011;32017;43.700;11.820;2023-02-22T07:35:01;47.58;;;34.90;;
46282;SDS011;32017;43.700;11.820;2023-02-22T07:37:22;49.22;;;37.47;;
46282;SDS011;32017;43.700;11.820;2023-02-22T07:39:42;42.75;;;36.45;;
46282;SDS011;32017;43.700;11.820;2023-02-22T07:42:03;40.03;;;35.35;;
46282;SDS011;32017;43.700;11.820;2023-02-22T07:44:23;44.83;;;36.47;;
46282;SDS011;32017;43.700;11.820;2023-02-22T07:46:47;45.75;;;37.90;;
46282;SDS011;32017;43.700;11.820;2023-02-22T07:49:08;46.90;;;36.65;;
46282;SDS011;32017;43.700;11.820;2023-02-22T07:51:29;45.80;;;36.10;;
46282;SDS011;32017;43.700;11.820;2023-02-22T07:53:48;48.97;;;37.28;;
46282;SDS011;32017;43.700;11.820;2023-02-22T07:56:09;41.60;;;36.17;;
46282;SDS011;32017;43.700;11.820;2023-02-22T07:58:29;44.17;;;34.95;;
46282;SDS011;32017;43.700;11.820;2023-02-22T08:00:50;42.83;;;34.63;;
46282;SDS011;32017;43.700;11.820;2023-02-22T08:03:11;42.25;;;35.45;;
46282;SDS011;32017;43.700;11.820;2023-02-22T08:05:33;38.60;;;33.53;;
46282;SDS011;32017;43.700;11.820;2023-02-22T08:07:55;46.70;;;38.25;;
46282;SDS011;32017;43.700;11.820;2023-02-22T08:10:15;47.63;;;37.72;;
46282;SDS011;32017;43.700;11.820;2023-02-22T08:12:36;47.35;;;37.28;;
46282;SDS011;32017;43.700;11.820;2023-02-22T08:14:56;55.10;;;41.83;;
46282;SDS011;32017;43.700;11.820;2023-02-22T08:17:16;60.65;;;44.88;;
46282;SDS011;32017;43.700;11.820;2023-02-22T08:19:36;51.88;;;38.83;;
46282;SDS011;32017;43.700;11.820;2023-02-22T08:21:58;42.90;;;33.67;;
46282;SDS011;32017;43.700;11.820;2023-02-22T08:24:18;44.42;;;37.08;;
46282;SDS011;32017;43.700;11.820;2023-02-22T08:26:43;49.00;;;36.45;;
46282;SDS011;32017;43.700;11.820;2023-02-22T08:29:05;45.25;;;34.97;;
46282;SDS011;32017;43.700;11.820;2023-02-22T08:31:24;49.38;;;36.83;;
46282;SDS011;32017;43.700;11.820;2023-02-22T08:33:48;42.28;;;37.20;;
46282;SDS011;32017;43.700;11.820;2023-02-22T08:36:08;44.35;;;37.85;;
46282;SDS011;32017;43.700;11.820;2023-02-22T08:38:29;44.35;;;36.05;;
46282;SDS011;32017;43.700;11.820;2023-02-22T08:40:51;50.15;;;38.92;;
46282;SDS011;32017;43.700;11.820;2023-02-22T08:43:11;71.65;;;51.60;;
46282;SDS011;32017;43.700;11.820;2023-02-22T08:45:32;80.40;;;56.53;;
46282;SDS011;32017;43.700;11.820;2023-02-22T08:47:52;50.40;;;39.00;;
46282;SDS011;32017;43.700;11.820;2023-02-22T08:50:22;45.70;;;36.88;;
46282;SDS011;32017;43.700;11.820;2023-02-22T08:52:49;44.92;;;36.58;;
46282;SDS011;32017;43.700;11.820;2023-02-22T08:55:10;45.72;;;35.20;;
46282;SDS011;32017;43.700;11.820;2023-02-22T08:57:32;51.92;;;37.80;;
46282;SDS011;32017;43.700;11.820;2023-02-22T08:59:51;53.33;;;38.38;;
46282;SDS011;32017;43.700;11.820;2023-02-22T09:02:13;54.55;;;40.53;;
46282;SDS011;32017;43.700;11.820;2023-02-22T09:04:34;53.53;;;41.55;;
46282;SDS011;32017;43.700;11.820;2023-02-22T09:06:55;52.75;;;39.58;;
46282;SDS011;32017;43.700;11.820;2023-02-22T09:09:14;53.88;;;39.70;;
46282;SDS011;32017;43.700;11.820;2023-02-22T09:14:20;48.47;;;37.97;;
46282;SDS011;32017;43.700;11.820;2023-02-22T09:16:42;46.38;;;36.28;;
46282;SDS011;32017;43.700;11.820;2023-02-22T09:19:03;47.95;;;34.70;;
46282;SDS011;32017;43.700;11.820;2023-02-22T09:21:25;44.35;;;35.67;;
46282;SDS011;32017;43.700;11.820;2023-02-22T09:23:45;46.97;;;37.45;;
46282;SDS011;32017;43.700;11.820;2023-02-22T09:26:10;44.88;;;34.90;;
46282;SDS011;32017;43.700;11.820;2023-02-22T09:28:30;53.03;;;39.60;;
46282;SDS011;32017;43.700;11.820;2023-02-22T09:30:51;44.42;;;37.30;;
46282;SDS011;32017;43.700;11.820;2023-02-22T09:33:15;50.15;;;34.63;;
46282;SDS011;32017;43.700;11.820;2023-02-22T09:35:37;51.20;;;36.67;;
46282;SDS011;32017;43.700;11.820;2023-02-22T09:38:00;44.65;;;34.78;;
46282;SDS011;32017;43.700;11.820;2023-02-22T09:40:22;48.33;;;33.93;;
46282;SDS011;32017;43.700;11.820;2023-02-22T09:42:48;42.38;;;32.42;;
46282;SDS011;32017;43.700;11.820;2023-02-22T09:45:21;40.40;;;31.67;;
46282;SDS011;32017;43.700;11.820;2023-02-22T09:47:46;38.15;;;30.00;;
46282;SDS011;32017;43.700;11.820;2023-02-22T09:50:15;40.65;;;30.95;;
46282;SDS011;32017;43.700;11.820;2023-02-22T09:53:04;40.63;;;32.53;;
46282;SDS011;32017;43.700;11.820;2023-02-22T09:55:27;48.35;;;32.75;;
46282;SDS011;32017;43.700;11.820;2023-02-22T09:57:49;44.05;;;31.27;;
46282;SDS011;32017;43.700;11.820;2023-02-22T10:00:17;49.88;;;33.00;;
46282;SDS011;32017;43.700;11.820;2023-02-22T10:02:45;42.70;;;31.17;;
46282;SDS011;32017;43.700;11.820;2023-02-22T10:05:07;44.05;;;34.75;;
46282;SDS011;32017;43.700;11.820;2023-02-22T10:07:46;45.33;;;32.33;;
46282;SDS011;32017;43.700;11.820;2023-02-22T10:10:14;38.33;;;28.90;;
46282;SDS011;32017;43.700;11.820;2023-02-22T10:15:53;38.93;;;29.90;;
46282;SDS011;32017;43.700;11.820;2023-02-22T10:20:45;36.80;;;29.13;;
46282;SDS011;32017;43.700;11.820;2023-02-22T10:25:36;31.80;;;27.77;;
46282;SDS011;32017;43.700;11.820;2023-02-22T10:27:59;32.08;;;26.13;;
46282;SDS011;32017;43.700;11.820;2023-02-22T10:30:35;31.38;;;26.50;;
46282;SDS011;32017;43.700;11.820;2023-02-22T10:35:37;31.30;;;24.70;;
46282;SDS011;32017;43.700;11.820;2023-02-22T10:38:01;28.33;;;25.33;;
46282;SDS011;32017;43.700;11.820;2023-02-22T10:40:30;32.90;;;27.17;;
46282;SDS011;32017;43.700;11.820;2023-02-22T10:42:51;32.05;;;25.92;;
46282;SDS011;32017;43.700;11.820;2023-02-22T10:45:21;31.73;;;25.92;;
46282;SDS011;32017;43.700;11.820;2023-02-22T10:47:46;27.13;;;24.23;;
46282;SDS011;32017;43.700;11.820;2023-02-22T10:50:06;33.58;;;26.27;;
46282;SDS011;32017;43.700;11.820;2023-02-22T10:52:27;24.95;;;22.15;;
46282;SDS011;32017;43.700;11.820;2023-02-22T10:54:49;19.63;;;17.65;;
46282;SDS011;32017;43.700;11.820;2023-02-22T10:57:27;23.53;;;21.03;;
46282;SDS011;32017;43.700;11.820;2023-02-22T10:59:51;20.58;;;18.60;;
46282;SDS011;32017;43.700;11.820;2023-02-22T11:05:02;18.63;;;16.92;;
46282;SDS011;32017;43.700;11.820;2023-02-22T11:07:27;20.27;;;18.35;;
46282;SDS011;32017;43.700;11.820;2023-02-22T11:09:53;21.33;;;19.33;;
46282;SDS011;32017;43.700;11.820;2023-02-22T11:12:19;23.13;;;20.50;;
46282;SDS011;32017;43.700;11.820;2023-02-22T11:14:44;21.30;;;18.13;;
46282;SDS011;32017;43.700;11.820;2023-02-22T11:19:31;21.98;;;19.27;;
46282;SDS011;32017;43.700;11.820;2023-02-22T11:22:08;19.38;;;17.50;;
46282;SDS011;32017;43.700;11.820;2023-02-22T11:24:28;20.60;;;18.48;;
46282;SDS011;32017;43.700;11.820;2023-02-22T11:27:06;17.63;;;16.15;;
46282;SDS011;32017;43.700;11.820;2023-02-22T11:29:32;18.88;;;17.05;;
46282;SDS011;32017;43.700;11.820;2023-02-22T11:31:55;17.17;;;15.48;;
46282;SDS011;32017;43.700;11.820;2023-02-22T11:34:35;19.20;;;17.35;;
46282;SDS011;32017;43.700;11.820;2023-02-22T11:37:13;19.02;;;17.33;;
46282;SDS011;32017;43.700;11.820;2023-02-22T11:39:40;18.60;;;16.80;;
46282;SDS011;32017;43.700;11.820;2023-02-22T11:42:20;18.98;;;17.13;;
46282;SDS011;32017;43.700;11.820;2023-02-22T11:44:43;19.65;;;17.77;;
46282;SDS011;32017;43.700;11.820;2023-02-22T11:47:08;20.23;;;17.25;;
46282;SDS011;32017;43.700;11.820;2023-02-22T11:49:31;15.98;;;14.52;;
46282;SDS011;32017;43.700;11.820;2023-02-22T11:54:31;23.17;;;20.30;;
46282;SDS011;32017;43.700;11.820;2023-02-22T12:19:34;15.18;;;13.98;;
46282;SDS011;32017;43.700;11.820;2023-02-22T12:21:43;13.73;;;12.52;;
46282;SDS011;32017;43.700;11.820;2023-02-22T12:24:21;13.23;;;12.27;;
46282;SDS011;32017;43.700;11.820;2023-02-22T12:26:48;15.00;;;13.55;;
46282;SDS011;32017;43.700;11.820;2023-02-22T12:32:42;11.48;;;10.57;;
46282;SDS011;32017;43.700;11.820;2023-02-22T12:35:14;10.02;;;9.43;;
46282;SDS011;32017;43.700;11.820;2023-02-22T12:37:40;5.60;;;5.50;;
46282;SDS011;32017;43.700;11.820;2023-02-22T12:40:26;6.20;;;5.90;;
46282;SDS011;32017;43.700;11.820;2023-02-22T12:43:14;6.97;;;6.57;;
46282;SDS011;32017;43.700;11.820;2023-02-22T12:45:51;6.40;;;6.20;;
46282;SDS011;32017;43.700;11.820;2023-02-22T12:50:57;5.45;;;5.35;;
46282;SDS011;32017;43.700;11.820;2023-02-22T12:53:33;7.72;;;7.22;;
46282;SDS011;32017;43.700;11.820;2023-02-22T12:55:57;8.45;;;8.10;;
46282;SDS011;32017;43.700;11.820;2023-02-22T13:05:50;6.10;;;5.88;;
46282;SDS011;32017;43.700;11.820;2023-02-22T13:08:40;5.85;;;5.55;;
46282;SDS011;32017;43.700;11.820;2023-02-22T13:11:22;6.00;;;5.60;;
46282;SDS011;32017;43.700;11.820;2023-02-22T13:16:47;7.65;;;7.22;;
46282;SDS011;32017;43.700;11.820;2023-02-22T13:29:58;5.78;;;5.68;;
46282;SDS011;32017;43.700;11.820;2023-02-22T13:40:41;10.00;;;6.30;;
46282;SDS011;32017;43.700;11.820;2023-02-22T13:43:13;10.07;;;6.40;;
46282;SDS011;32017;43.700;11.820;2023-02-22T13:53:55;7.45;;;6.93;;
46282;SDS011;32017;43.700;11.820;2023-02-22T13:56:23;7.10;;;6.65;;
46282;SDS011;32017;43.700;11.820;2023-02-22T13:59:03;7.13;;;6.53;;
46282;SDS011;32017;43.700;11.820;2023-02-22T14:06:39;7.10;;;6.88;;
46282;SDS011;32017;43.700;11.820;2023-02-22T14:08:59;8.25;;;7.55;;
46282;SDS011;32017;43.700;11.820;2023-02-22T14:16:17;6.95;;;6.53;;
46282;SDS011;32017;43.700;11.820;2023-02-22T14:18:43;7.93;;;7.55;;
46282;SDS011;32017;43.700;11.820;2023-02-22T14:21:09;8.07;;;7.78;;
46282;SDS011;32017;43.700;11.820;2023-02-22T14:23:42;8.43;;;8.02;;
46282;SDS011;32017;43.700;11.820;2023-02-22T14:36:31;10.23;;;9.38;;
46282;SDS011;32017;43.700;11.820;2023-02-22T14:39:16;9.77;;;8.95;;
46282;SDS011;32017;43.700;11.820;2023-02-22T14:41:42;8.52;;;8.02;;
46282;SDS011;32017;43.700;11.820;2023-02-22T14:44:16;9.52;;;8.70;;
46282;SDS011;32017;43.700;11.820;2023-02-22T14:46:43;8.75;;;8.30;;
46282;SDS011;32017;43.700;11.820;2023-02-22T14:49:08;9.48;;;9.05;;
46282;SDS011;32017;43.700;11.820;2023-02-22T14:51:39;8.90;;;8.15;;
46282;SDS011;32017;43.700;11.820;2023-02-22T14:54:05;10.55;;;9.80;;
46282;SDS011;32017;43.700;11.820;2023-02-22T14:56:54;10.88;;;10.00;;
46282;SDS011;32017;43.700;11.820;2023-02-22T14:59:49;7.88;;;7.38;;
46282;SDS011;32017;43.700;11.820;2023-02-22T15:02:20;9.15;;;8.45;;
46282;SDS011;32017;43.700;11.820;2023-02-22T15:04:51;8.95;;;8.45;;
46282;SDS011;32017;43.700;11.820;2023-02-22T15:07:23;9.73;;;9.20;;
46282;SDS011;32017;43.700;11.820;2023-02-22T15:09:46;8.68;;;8.38;;
46282;SDS011;32017;43.700;11.820;2023-02-22T15:14:26;7.47;;;7.20;;
46282;SDS011;32017;43.700;11.820;2023-02-22T15:16:49;8.52;;;7.80;;
46282;SDS011;32017;43.700;11.820;2023-02-22T15:19:12;7.80;;;7.43;;
46282;SDS011;32017;43.700;11.820;2023-02-22T15:21:43;6.90;;;6.40;;
46282;SDS011;32017;43.700;11.820;2023-02-22T15:24:04;6.95;;;6.75;;
46282;SDS011;32017;43.700;11.820;2023-02-22T15:26:36;6.60;;;6.30;;
46282;SDS011;32017;43.700;11.820;2023-02-22T15:29:09;6.90;;;6.70;;
46282;SDS011;32017;43.700;11.820;2023-02-22T15:31:37;8.63;;;8.05;;
46282;SDS011;32017;43.700;11.820;2023-02-22T15:34:08;7.10;;;6.53;;
46282;SDS011;32017;43.700;11.820;2023-02-22T15:36:35;7.43;;;7.05;;
46282;SDS011;32017;43.700;11.820;2023-02-22T15:38:55;8.02;;;7.72;;
46282;SDS011;32017;43.700;11.820;2023-02-22T15:41:19;7.95;;;6.95;;
46282;SDS011;32017;43.700;11.820;2023-02-22T15:46:43;6.73;;;6.43;;
46282;SDS011;32017;43.700;11.820;2023-02-22T15:49:04;7.90;;;7.43;;
46282;SDS011;32017;43.700;11.820;2023-02-22T15:51:34;8.30;;;7.78;;
46282;SDS011;32017;43.700;11.820;2023-02-22T15:53:56;9.00;;;8.57;;
46282;SDS011;32017;43.700;11.820;2023-02-22T15:56:28;10.23;;;9.60;;
46282;SDS011;32017;43.700;11.820;2023-02-22T15:58:48;7.82;;;7.53;;
46282;SDS011;32017;43.700;11.820;2023-02-22T16:01:10;9.18;;;8.55;;
46282;SDS011;32017;43.700;11.820;2023-02-22T16:03:53;8.75;;;7.93;;
46282;SDS011;32017;43.700;11.820;2023-02-22T16:08:50;7.93;;;7.50;;
46282;SDS011;32017;43.700;11.820;2023-02-22T16:11:30;10.68;;;9.93;;
46282;SDS011;32017;43.700;11.820;2023-02-22T16:13:52;9.80;;;8.88;;
46282;SDS011;32017;43.700;11.820;2023-02-22T16:18:38;9.90;;;9.20;;
46282;SDS011;32017;43.700;11.820;2023-02-22T16:21:01;9.10;;;7.63;;
46282;SDS011;32017;43.700;11.820;2023-02-22T16:23:22;9.88;;;9.27;;
46282;SDS011;32017;43.700;11.820;2023-02-22T16:28:22;9.20;;;8.60;;
46282;SDS011;32017;43.700;11.820;2023-02-22T16:30:54;10.45;;;8.30;;
46282;SDS011;32017;43.700;11.820;2023-02-22T16:33:16;7.78;;;7.10;;